Time;durP1;ratioP1;P1;durP2;ratioP2;P2;SDS_P1;SDS_P2;PMS_P1;PMS_P2;Temp;Humidity;BMP_temperature;BMP_pressure;BME280_temperature;BME280_humidity;BME280_pressure;Samples;Min_cycle;Max_cycle;Signal;HPM_P1;HPM_P2
2023/05/28 00:00:10;;;;;;;8.20;5.80;;;;;;;17.45;83.78;99120.47;78370;1295;3028211;-65
2023/05/28 00:02:44;;;;;;;7.20;5.50;;;;;;;17.11;85.05;99118.54;78524;1295;3051854;-64
2023/05/28 00:05:10;;;;;;;5.50;3.70;;;;;;;16.90;86.15;99121.13;79772;1292;3018637;-68
2023/05/28 00:07:37;;;;;;;4.60;4.00;;;;;;;17.22;85.35;99131.67;79685;1292;3011639;-66
2023/05/28 00:10:05;;;;;;;6.00;4.50;;;;;;;17.48;83.98;99133.79;78406;1295;3028707;-66
2023/05/28 00:12:33;;;;;;;7.20;5.70;;;;;;;17.39;84.55;99129.72;79797;1293;3013310;-70
2023/05/28 00:14:59;;;;;;;6.30;5.10;;;;;;;17.15;85.24;99126.66;79580;1292;3011765;-65
2023/05/28 00:17:28;;;;;;;8.00;5.10;;;;;;;16.86;86.51;99128.10;78493;1295;3053312;-67
2023/05/28 00:19:54;;;;;;;8.40;3.40;;;;;;;16.69;87.66;99123.06;79796;1295;3013001;-68
2023/05/28 00:22:21;;;;;;;6.80;4.30;;;;;;;17.09;86.59;99129.66;79784;1292;3011908;-73
2023/05/28 00:24:49;;;;;;;5.90;4.50;;;;;;;17.50;84.20;99130.27;78467;1292;3026241;-65
2023/05/28 00:27:15;;;;;;;7.30;4.50;;;;;;;17.35;83.74;99132.19;79848;1295;3013061;-67
2023/05/28 00:29:43;;;;;;;6.50;4.70;;;;;;;17.30;83.97;99129.66;79749;1295;3011597;-67
2023/05/28 00:32:12;;;;;;;6.20;4.70;;;;;;;17.07;83.81;99128.44;78589;1295;3052513;-65
2023/05/28 00:34:38;;;;;;;6.00;4.30;;;;;;;16.86;84.40;99122.24;79785;1295;3011599;-65
2023/05/28 00:37:05;;;;;;;5.00;2.80;;;;;;;16.85;84.63;99123.77;79518;1295;3012994;-66
2023/05/28 00:39:32;;;;;;;4.80;3.20;;;;;;;17.36;83.38;99124.84;78444;1295;3027326;-68
2023/05/28 00:42:03;;;;;;;3.40;3.10;;;;;;;17.68;81.06;99123.29;79649;1292;3013232;-66
2023/05/28 00:44:32;;;;;;;4.80;3.30;;;;;;;17.78;80.46;99126.92;79261;1295;3012885;-66
2023/05/28 00:46:59;;;;;;;6.40;3.90;;;;;;;17.69;80.46;99129.06;79580;1298;3012855;-70
2023/05/28 00:49:26;;;;;;;6.30;4.30;;;;;;;17.52;80.91;99128.86;79696;1292;3013701;-67
2023/05/28 00:51:55;;;;;;;6.90;4.00;;;;;;;17.32;81.14;99126.48;78471;1292;3052123;-62
2023/05/28 00:54:25;;;;;;;3.30;2.30;;;;;;;17.10;81.59;99125.89;79739;1292;3013014;-70
2023/05/28 00:56:53;;;;;;;3.70;2.40;;;;;;;17.50;80.81;99122.83;78349;1298;3054725;-68
2023/05/28 00:59:21;;;;;;;5.00;2.30;;;;;;;17.88;78.95;99125.39;79668;1295;3013439;-68
2023/05/28 01:01:48;;;;;;;4.70;2.60;;;;;;;17.82;78.75;99127.27;79744;1292;3011403;-65
2023/05/28 01:04:16;;;;;;;4.40;2.90;;;;;;;17.65;79.10;99131.52;78555;1295;3069000;-66
2023/05/28 01:06:43;;;;;;;5.50;3.90;;;;;;;17.35;79.77;99129.93;79586;1292;3018589;-62
2023/05/28 01:09:12;;;;;;;5.10;4.00;;;;;;;17.03;81.67;99130.93;79469;1292;3012872;-63
2023/05/28 01:11:41;;;;;;;4.60;3.10;;;;;;;16.77;84.02;99129.71;78314;1297;3052335;-64
2023/05/28 01:14:07;;;;;;;5.60;3.60;;;;;;;17.03;84.50;99137.50;79597;1297;3013017;-66
2023/05/28 01:16:35;;;;;;;7.70;5.10;;;;;;;17.46;82.51;99136.15;79456;1293;3012375;-65
2023/05/28 01:19:08;;;;;;;9.50;5.90;;;;;;;17.31;83.19;99140.17;78147;1300;3069444;-63
2023/05/28 01:21:38;;;;;;;8.60;6.30;;;;;;;16.92;85.36;99130.50;79372;1292;3011618;-61
2023/05/28 01:24:06;;;;;;;7.60;6.50;;;;;;;16.58;87.01;99133.44;78347;1298;3056614;-65
2023/05/28 01:26:33;;;;;;;6.90;4.80;;;;;;;16.33;88.77;99136.08;79358;1292;3013577;-66
2023/05/28 01:28:59;;;;;;;9.20;5.00;;;;;;;16.64;87.71;99128.44;79755;1292;3011734;-62
2023/05/28 01:31:29;;;;;;;10.20;5.40;;;;;;;16.75;86.54;99127.30;78292;1298;3053622;-64
2023/05/28 01:33:56;;;;;;;7.70;5.00;;;;;;;16.58;86.83;99127.44;79547;1296;3018641;-65
2023/05/28 01:36:29;;;;;;;11.40;7.10;;;;;;;16.35;87.35;99127.92;79514;1292;3013269;-64
2023/05/28 01:38:59;;;;;;;8.20;4.50;;;;;;;16.17;88.58;99122.96;78338;1292;3056450;-63
2023/05/28 01:41:27;;;;;;;6.30;4.30;;;;;;;16.59;85.95;99125.23;79536;1292;3013586;-65
2023/05/28 01:43:54;;;;;;;9.20;5.70;;;;;;;16.82;84.17;99120.83;79490;1298;3012770;-63
2023/05/28 01:46:22;;;;;;;8.90;5.90;;;;;;;16.60;84.91;99121.07;78155;1299;3052473;-66
2023/05/28 01:48:49;;;;;;;11.40;6.40;;;;;;;16.45;83.88;99126.70;79565;1298;3013563;-65
2023/05/28 01:51:26;;;;;;;9.60;5.50;;;;;;;16.22;83.75;99128.92;79465;1292;3011695;-64
2023/05/28 01:53:54;;;;;;;7.40;4.00;;;;;;;16.09;83.00;99125.41;78505;1292;3057835;-64
2023/05/28 01:56:21;;;;;;;9.30;5.50;;;;;;;16.75;81.20;99117.71;79644;1292;3013170;-66
2023/05/28 01:58:47;;;;;;;10.90;5.90;;;;;;;17.09;80.07;99124.25;79486;1292;3013362;-68
2023/05/28 02:01:29;;;;;;;16.60;7.50;;;;;;;16.81;80.81;99126.73;78466;1297;3026763;-68
2023/05/28 02:03:57;;;;;;;15.30;7.80;;;;;;;16.48;82.09;99127.80;78480;1297;3052689;-68
2023/05/28 02:06:25;;;;;;;17.70;9.10;;;;;;;16.18;83.54;99134.04;79568;1297;3019302;-63
2023/05/28 02:08:52;;;;;;;13.70;7.40;;;;;;;15.94;84.46;99140.00;79495;1291;3013892;-64
2023/05/28 02:11:21;;;;;;;9.20;4.30;;;;;;;15.90;84.74;99134.68;78378;1292;3048700;-65
2023/05/28 02:13:48;;;;;;;7.40;3.80;;;;;;;16.46;82.00;99132.23;79716;1292;3012930;-66
2023/05/28 02:16:18;;;;;;;7.70;3.30;;;;;;;16.87;77.33;99130.64;79772;1293;3013579;-65
2023/05/28 02:18:47;;;;;;;5.20;2.90;;;;;;;17.02;75.53;99132.33;78376;1295;3051739;-69
2023/05/28 02:21:16;;;;;;;6.60;2.50;;;;;;;16.94;73.55;99128.74;79663;1298;3011587;-65
2023/05/28 02:23:46;;;;;;;4.40;2.80;;;;;;;16.86;74.58;99131.58;78397;1293;3029014;-67
2023/05/28 02:26:12;;;;;;;5.60;2.60;;;;;;;16.68;75.24;99127.93;79685;1292;3013962;-68
2023/05/28 02:28:42;;;;;;;5.10;2.90;;;;;;;16.56;75.16;99129.50;79602;1293;3011466;-67
2023/05/28 02:31:11;;;;;;;5.60;2.80;;;;;;;16.46;76.76;99130.30;78697;1298;3048526;-65
2023/05/28 02:33:38;;;;;;;3.30;2.30;;;;;;;16.38;78.11;99137.03;79733;1295;3012947;-68
2023/05/28 02:36:11;;;;;;;4.50;2.60;;;;;;;16.88;77.22;99135.15;79431;1292;3012866;-65
2023/05/28 02:38:40;;;;;;;3.30;2.20;;;;;;;17.38;74.49;99134.80;78338;1292;3051074;-64
2023/05/28 02:41:08;;;;;;;7.90;3.90;;;;;;;17.41;74.70;99140.90;79676;1292;3013300;-65
2023/05/28 02:43:35;;;;;;;5.60;2.80;;;;;;;17.14;76.16;99136.60;79573;1292;3012079;-65
2023/05/28 02:46:04;;;;;;;4.70;2.80;;;;;;;16.85;77.21;99137.92;78345;1298;3050549;-65
2023/05/28 02:48:32;;;;;;;5.90;3.50;;;;;;;16.60;78.20;99137.31;79544;1298;3012977;-68
2023/05/28 02:50:59;;;;;;;4.80;3.00;;;;;;;16.39;78.94;99141.13;79626;1296;3011595;-66
2023/05/28 02:54:02;;;;;;;8.20;2.50;;;;;;;16.36;78.65;99140.15;77973;1303;3051869;-63
2023/05/28 02:56:29;;;;;;;3.20;2.30;;;;;;;16.96;76.48;99141.13;79554;1295;3012723;-66
2023/05/28 02:58:56;;;;;;;5.00;2.70;;;;;;;17.17;74.86;99141.86;79683;1295;3011602;-65
2023/05/28 03:01:26;;;;;;;4.50;2.90;;;;;;;17.11;74.63;99140.30;78542;1295;3049331;-69
2023/05/28 03:03:52;;;;;;;7.00;3.60;;;;;;;16.96;74.82;99141.64;79690;1295;3014804;-62
2023/05/28 03:06:21;;;;;;;4.90;3.30;;;;;;;16.74;75.59;99138.70;79705;1295;3011486;-67
2023/05/28 03:08:52;;;;;;;5.70;4.00;;;;;;;16.62;75.48;99140.19;78493;1295;3051601;-68
2023/05/28 03:11:19;;;;;;;4.30;3.30;;;;;;;16.52;76.43;99139.27;79650;1292;3012883;-65
2023/05/28 03:13:46;;;;;;;7.20;3.50;;;;;;;16.48;77.32;99141.23;79601;1292;3011973;-68
2023/05/28 03:16:14;;;;;;;7.60;4.00;;;;;;;16.99;76.46;99144.56;78571;1295;3049914;-64
2023/05/28 03:18:41;;;;;;;11.10;4.60;;;;;;;17.28;75.51;99143.89;79652;1297;3013086;-67
2023/05/28 03:21:09;;;;;;;9.00;5.10;;;;;;;17.14;76.23;99141.79;79748;1291;3011815;-63
2023/05/28 03:23:37;;;;;;;9.20;5.10;;;;;;;16.93;76.55;99142.11;78341;1297;3051841;-66
2023/05/28 03:26:08;;;;;;;8.60;5.60;;;;;;;16.75;77.15;99141.45;79569;1298;3013195;-62
2023/05/28 03:28:36;;;;;;;10.00;5.10;;;;;;;16.60;77.73;99139.09;78333;1298;3049403;-65
2023/05/28 03:31:27;;;;;;;9.60;5.60;;;;;;;16.44;78.03;99134.35;78464;1295;3053261;-66
2023/05/28 03:33:54;;;;;;;7.70;3.80;;;;;;;16.37;78.73;99135.55;79598;1292;3011628;-63
2023/05/28 03:36:24;;;;;;;7.20;4.00;;;;;;;16.95;77.45;99139.08;78443;1295;3027390;-63
2023/05/28 03:38:51;;;;;;;7.80;4.40;;;;;;;17.25;76.17;99137.42;79641;1295;3013001;-69
2023/05/28 03:41:17;;;;;;;9.40;5.30;;;;;;;17.12;76.71;99138.06;79571;1293;3013226;-67
2023/05/28 03:43:45;;;;;;;9.90;6.10;;;;;;;16.94;77.65;99139.57;78380;1295;3056726;-67
2023/05/28 03:46:12;;;;;;;9.30;5.50;;;;;;;16.78;78.89;99144.14;79675;1293;3018402;-66
2023/05/28 03:48:39;;;;;;;8.90;5.90;;;;;;;16.68;78.81;99143.71;79552;1292;3011651;-68
2023/05/28 03:51:09;;;;;;;9.70;4.70;;;;;;;16.64;79.82;99153.92;78496;1296;3053309;-67
2023/05/28 03:53:36;;;;;;;9.10;4.80;;;;;;;17.14;77.92;99152.92;79689;1297;3013303;-67
2023/05/28 03:56:03;;;;;;;10.00;6.00;;;;;;;17.66;76.03;99155.20;79624;1292;3011401;-65
2023/05/28 03:58:31;;;;;;;10.40;5.90;;;;;;;17.54;75.53;99160.91;78477;1295;3055805;-63
2023/05/28 04:01:00;;;;;;;10.10;6.60;;;;;;;17.38;76.03;99156.86;79677;1292;3013162;-66
2023/05/28 04:03:27;;;;;;;11.90;7.30;;;;;;;17.21;77.16;99159.58;79581;1292;3011810;-67
2023/05/28 04:05:55;;;;;;;16.20;8.60;;;;;;;17.06;77.83;99155.26;78543;1295;3052848;-63
2023/05/28 04:08:22;;;;;;;13.80;9.60;;;;;;;16.92;78.56;99156.22;79609;1295;3013922;-67
2023/05/28 04:10:48;;;;;;;16.80;7.80;;;;;;;16.85;79.62;99157.88;79627;1291;3011646;-70
2023/05/28 04:13:17;;;;;;;19.50;10.40;;;;;;;17.42;79.06;99159.39;78414;1293;3055299;-64
2023/05/28 04:15:43;;;;;;;20.50;10.80;;;;;;;17.80;77.13;99164.09;79698;1298;3020659;-70
2023/05/28 04:18:10;;;;;;;26.50;14.00;;;;;;;17.94;76.75;99168.48;79519;1293;3013432;-65
2023/05/28 04:20:38;;;;;;;33.10;15.30;;;;;;;17.78;76.42;99167.17;78553;1295;3026202;-68
2023/05/28 04:23:06;;;;;;;32.40;16.80;;;;;;;17.54;77.50;99161.20;79820;1291;3013553;-64
2023/05/28 04:25:32;;;;;;;32.80;16.50;;;;;;;17.34;78.58;99164.16;79699;1293;3013797;-64
2023/05/28 04:28:00;;;;;;;27.20;11.60;;;;;;;17.20;79.15;99159.63;78413;1298;3056840;-66
2023/05/28 04:30:27;;;;;;;26.60;11.20;;;;;;;17.70;77.73;99160.61;79728;1293;3021068;-64
2023/05/28 04:32:56;;;;;;;26.30;12.10;;;;;;;18.18;74.97;99161.59;79779;1291;3011902;-64
2023/05/28 04:35:24;;;;;;;27.50;12.90;;;;;;;18.18;74.07;99164.77;78507;1295;3052062;-65
2023/05/28 04:37:51;;;;;;;28.90;13.10;;;;;;;18.08;74.15;99168.73;79624;1296;3013626;-69
2023/05/28 04:40:21;;;;;;;27.50;13.80;;;;;;;17.85;74.84;99167.75;79635;1293;3011699;-69
2023/05/28 04:42:49;;;;;;;29.30;11.50;;;;;;;17.65;75.74;99174.38;78389;1292;3058107;-66
2023/05/28 04:45:16;;;;;;;24.20;11.60;;;;;;;17.48;76.12;99172.94;79541;1292;3014003;-69
2023/05/28 04:47:49;;;;;;;26.30;11.90;;;;;;;17.40;76.15;99171.98;78496;1297;3050628;-65
2023/05/28 04:50:15;;;;;;;13.70;6.70;;;;;;;17.32;77.06;99171.50;79618;1295;3013646;-68
2023/05/28 04:52:42;;;;;;;15.80;6.60;;;;;;;17.91;75.67;99171.54;79710;1295;3013139;-69
2023/05/28 04:55:12;;;;;;;11.80;6.40;;;;;;;18.50;72.69;99174.00;78457;1292;3050494;-69
2023/05/28 04:57:39;;;;;;;16.70;7.40;;;;;;;18.58;71.92;99174.17;79655;1292;3013465;-69
2023/05/28 05:00:13;;;;;;;15.90;6.70;;;;;;;18.35;71.64;99179.28;79236;1295;3033169;-67
2023/05/28 05:02:41;;;;;;;13.30;6.40;;;;;;;18.15;72.67;99180.50;79625;1293;3013080;-69
2023/05/28 05:05:09;;;;;;;14.40;5.40;;;;;;;17.91;73.36;99185.36;78350;1296;3049934;-67
2023/05/28 05:07:39;;;;;;;10.50;5.00;;;;;;;17.67;73.70;99184.86;79660;1298;3013278;-69
2023/05/28 05:10:09;;;;;;;8.80;5.10;;;;;;;17.63;74.81;99178.31;79184;1297;3011592;-66
2023/05/28 05:12:36;;;;;;;8.10;3.90;;;;;;;17.64;75.68;99182.48;79734;1292;3011561;-68
2023/05/28 05:15:04;;;;;;;5.20;3.00;;;;;;;18.11;74.68;99180.14;79728;1293;3011459;-67
2023/05/28 05:17:32;;;;;;;7.20;3.00;;;;;;;18.57;73.06;99176.52;78475;1296;3048323;-67
2023/05/28 05:20:01;;;;;;;5.90;3.40;;;;;;;18.49;73.15;99186.39;79751;1298;3019208;-65
2023/05/28 05:22:28;;;;;;;4.40;3.00;;;;;;;18.30;74.23;99185.58;79738;1293;3011769;-69
2023/05/28 05:24:57;;;;;;;4.90;2.90;;;;;;;18.11;75.14;99190.77;78467;1292;3052641;-66
2023/05/28 05:27:24;;;;;;;6.60;3.60;;;;;;;18.05;75.83;99188.20;79537;1298;3013357;-67
2023/05/28 05:29:51;;;;;;;5.00;3.60;;;;;;;17.95;76.61;99184.66;79476;1298;3011650;-64
2023/05/28 05:32:19;;;;;;;2.90;2.00;;;;;;;17.89;76.87;99185.56;78415;1297;3026392;-63
2023/05/28 05:34:46;;;;;;;3.50;2.40;;;;;;;18.39;75.32;99190.92;79770;1293;3012885;-65
2023/05/28 05:37:26;;;;;;;3.80;2.70;;;;;;;18.71;73.73;99182.30;78368;1295;3053128;-65
2023/05/28 05:40:13;;;;;;;4.70;2.70;;;;;;;18.55;73.67;99185.98;78391;1305;3053527;-67
2023/05/28 05:43:16;;;;;;;4.40;2.70;;;;;;;18.23;74.65;99188.23;78038;1311;3069565;-65
2023/05/28 05:45:43;;;;;;;4.40;3.00;;;;;;;18.03;75.36;99184.45;79604;1299;3012940;-67
2023/05/28 05:48:11;;;;;;;5.80;3.00;;;;;;;18.04;76.25;99185.94;79797;1293;3011444;-68
2023/05/28 05:50:54;;;;;;;3.60;2.50;;;;;;;18.02;76.73;99184.34;78344;1292;3053320;-67
2023/05/28 05:53:22;;;;;;;2.80;1.70;;;;;;;18.23;76.90;99187.86;78406;1298;3050751;-63
2023/05/28 05:55:49;;;;;;;2.20;1.70;;;;;;;18.91;74.22;99190.56;79698;1298;3013120;-67
2023/05/28 05:58:16;;;;;;;6.10;2.30;;;;;;;19.43;72.00;99188.27;79630;1293;3011513;-69
2023/05/28 06:00:44;;;;;;;5.30;2.50;;;;;;;19.52;70.79;99197.26;78443;1298;3027400;-66
2023/05/28 06:03:11;;;;;;;7.80;2.90;;;;;;;19.23;72.00;99205.20;79732;1291;3012813;-64
2023/05/28 06:05:57;;;;;;;6.30;3.20;;;;;;;19.26;72.50;99207.11;78450;1295;3053510;-69
2023/05/28 06:08:40;;;;;;;4.90;3.20;;;;;;;19.23;72.67;99205.48;78386;1295;3050570;-67
2023/05/28 06:11:17;;;;;;;5.80;3.20;;;;;;;19.16;73.17;99209.98;78499;1298;3054662;-65
2023/05/28 06:13:44;;;;;;;7.50;3.80;;;;;;;19.08;73.69;99210.62;79641;1298;3013800;-67
2023/05/28 06:16:11;;;;;;;2.60;1.90;;;;;;;19.08;74.36;99210.41;79701;1293;3011787;-66
2023/05/28 06:18:39;;;;;;;3.80;2.90;;;;;;;19.60;73.11;99208.71;78436;1298;3058007;-68
2023/05/28 06:21:08;;;;;;;4.40;3.40;;;;;;;19.93;71.46;99213.86;79834;1295;3013672;-66
2023/05/28 06:23:37;;;;;;;5.00;3.50;;;;;;;19.97;71.16;99219.34;79163;1297;3011901;-66
2023/05/28 06:26:04;;;;;;;7.20;4.10;;;;;;;20.00;71.50;99224.52;79654;1297;3018467;-72
2023/05/28 06:28:35;;;;;;;5.60;3.70;;;;;;;20.00;71.50;99223.64;79320;1295;3011716;-69
2023/05/28 06:31:03;;;;;;;5.30;4.00;;;;;;;20.03;71.80;99227.42;79769;1295;3013413;-70
2023/05/28 06:33:30;;;;;;;9.90;3.90;;;;;;;20.04;72.07;99230.69;79882;1291;3011750;-69
2023/05/28 06:35:59;;;;;;;5.80;4.20;;;;;;;19.99;72.13;99236.87;78491;1296;3057228;-73
2023/05/28 06:38:27;;;;;;;6.70;3.80;;;;;;;20.03;72.26;99230.63;79988;1292;3013063;-67
2023/05/28 06:40:54;;;;;;;3.40;2.10;;;;;;;20.12;72.12;99231.65;79663;1298;3011761;-72
2023/05/28 06:43:24;;;;;;;4.60;3.00;;;;;;;20.82;70.29;99232.45;78489;1295;3052208;-67
2023/05/28 06:46:24;;;;;;;3.70;3.10;;;;;;;21.43;67.64;99233.54;78246;1295;3053557;-67
2023/05/28 06:48:51;;;;;;;5.00;3.30;;;;;;;21.58;67.26;99235.83;79781;1296;3013245;-66
2023/05/28 06:51:19;;;;;;;6.10;4.00;;;;;;;21.55;67.42;99236.88;79705;1292;3011837;-64
2023/05/28 06:53:47;;;;;;;8.10;4.10;;;;;;;21.40;67.72;99237.29;78379;1295;3048170;-68
2023/05/28 06:56:17;;;;;;;5.10;4.10;;;;;;;21.34;68.14;99237.57;79787;1305;3011567;-69
2023/05/28 06:59:23;;;;;;;7.40;4.70;;;;;;;21.21;68.47;99236.86;78048;1311;3050166;-68
2023/05/28 07:02:18;;;;;;;11.10;4.50;;;;;;;21.10;68.77;99236.67;77878;1305;3052766;-67
2023/05/28 07:04:56;;;;;;;7.30;4.40;;;;;;;21.06;68.31;99240.48;78398;1298;3053297;-66
2023/05/28 07:07:28;;;;;;;7.10;5.10;;;;;;;20.98;68.60;99240.23;79524;1297;3013425;-69
2023/05/28 07:09:56;;;;;;;6.90;4.30;;;;;;;20.97;68.74;99239.80;78631;1305;3051831;-69
2023/05/28 07:12:24;;;;;;;7.20;4.80;;;;;;;20.99;68.97;99234.39;79847;1297;3012682;-65
2023/05/28 07:14:56;;;;;;;6.20;4.80;;;;;;;21.04;68.49;99234.03;78537;1293;3054749;-68
2023/05/28 07:17:23;;;;;;;6.80;5.20;;;;;;;21.10;68.51;99237.30;79887;1295;3013277;-67
2023/05/28 07:19:50;;;;;;;4.30;2.50;;;;;;;21.15;69.29;99237.10;79531;1295;3012855;-68
2023/05/28 07:22:26;;;;;;;3.70;2.90;;;;;;;22.04;66.73;99239.91;78646;1297;3068445;-70
2023/05/28 07:24:53;;;;;;;6.40;3.70;;;;;;;22.66;64.25;99238.80;79926;1295;3013156;-66
2023/05/28 07:27:19;;;;;;;7.70;3.80;;;;;;;22.87;63.45;99237.58;79781;1298;3011818;-68
2023/05/28 07:29:47;;;;;;;7.00;5.10;;;;;;;22.90;63.69;99243.92;78441;1298;3028130;-67
2023/05/28 07:32:16;;;;;;;5.10;4.30;;;;;;;22.77;63.88;99242.46;79661;1293;3015147;-65
2023/05/28 07:34:46;;;;;;;5.30;4.30;;;;;;;22.80;63.69;99245.41;78488;1295;3028906;-65
2023/05/28 07:37:13;;;;;;;5.50;4.70;;;;;;;22.73;63.84;99251.54;79735;1295;3012740;-66
2023/05/28 07:39:41;;;;;;;7.90;4.80;;;;;;;22.64;64.39;99249.31;79775;1292;3013583;-65
2023/05/28 07:42:08;;;;;;;8.80;5.00;;;;;;;22.61;64.52;99247.92;78595;1295;3056771;-69
2023/05/28 07:44:41;;;;;;;7.50;5.10;;;;;;;22.45;64.64;99247.25;79772;1292;3011776;-66
2023/05/28 07:47:10;;;;;;;7.10;5.20;;;;;;;22.45;65.08;99248.48;78472;1293;3052648;-69
2023/05/28 07:49:58;;;;;;;5.50;4.80;;;;;;;22.32;65.52;99250.27;78453;1296;3050598;-66
2023/05/28 07:52:36;;;;;;;8.50;5.10;;;;;;;22.21;65.71;99249.23;78440;1298;3053524;-63
2023/05/28 07:55:03;;;;;;;7.10;5.20;;;;;;;22.13;66.19;99249.60;79763;1297;3014188;-66
2023/05/28 07:57:31;;;;;;;7.00;5.10;;;;;;;22.03;66.72;99250.48;79662;1295;3011725;-66
2023/05/28 08:00:00;;;;;;;7.00;4.90;;;;;;;22.15;66.74;99243.31;78628;1294;3057500;-65
2023/05/28 08:02:28;;;;;;;7.80;5.80;;;;;;;22.16;66.94;99244.73;79779;1299;3013520;-69
2023/05/28 08:04:54;;;;;;;9.50;5.80;;;;;;;22.13;67.39;99247.56;79663;1292;3011881;-65
2023/05/28 08:07:22;;;;;;;8.30;6.30;;;;;;;22.17;67.24;99250.89;78460;1304;3052478;-66
2023/05/28 08:09:49;;;;;;;9.00;6.80;;;;;;;22.18;67.26;99253.75;79973;1298;3019045;-67
2023/05/28 08:12:18;;;;;;;11.50;6.80;;;;;;;22.17;67.15;99254.63;79630;1292;3013284;-67
2023/05/28 08:14:47;;;;;;;10.50;6.30;;;;;;;22.12;67.36;99254.69;78312;1292;3055429;-66
2023/05/28 08:17:14;;;;;;;8.20;6.10;;;;;;;22.09;67.46;99256.23;79567;1292;3013079;-65
2023/05/28 08:19:49;;;;;;;8.20;7.00;;;;;;;22.05;67.13;99254.24;78337;1298;3049580;-64
2023/05/28 08:22:36;;;;;;;11.10;6.10;;;;;;;22.02;67.53;99251.20;78408;1297;3052733;-64
2023/05/28 08:25:04;;;;;;;8.60;6.70;;;;;;;21.98;67.31;99248.72;79531;1298;3018317;-64
2023/05/28 08:27:33;;;;;;;9.20;6.40;;;;;;;22.04;67.30;99242.18;79596;1293;3011679;-62
2023/05/28 08:30:02;;;;;;;8.00;6.10;;;;;;;22.07;67.36;99244.34;78342;1295;3058566;-64
2023/05/28 08:32:31;;;;;;;8.00;6.00;;;;;;;22.16;67.32;99246.75;79546;1292;3011418;-67
2023/05/28 08:35:01;;;;;;;6.90;5.30;;;;;;;22.21;67.03;99243.85;78938;1292;3013110;-68
2023/05/28 08:37:27;;;;;;;7.80;5.90;;;;;;;22.25;66.51;99241.21;79674;1295;3013323;-72
2023/05/28 08:40:11;;;;;;;6.50;5.40;;;;;;;22.19;66.60;99245.56;78531;1295;3052799;-66
2023/05/28 08:42:39;;;;;;;7.30;5.60;;;;;;;22.25;66.31;99243.59;79652;1291;3011708;-66
2023/05/28 08:45:10;;;;;;;11.40;5.70;;;;;;;22.32;66.12;99241.83;79099;1292;3011919;-69
2023/05/28 08:47:38;;;;;;;8.80;6.00;;;;;;;22.41;65.99;99245.23;79804;1298;3013949;-68
2023/05/28 08:50:15;;;;;;;7.80;5.60;;;;;;;22.39;65.82;99243.45;78466;1292;3050202;-67
2023/05/28 08:52:56;;;;;;;7.20;5.50;;;;;;;22.42;64.78;99246.63;78504;1295;3053335;-64
2023/05/28 08:55:23;;;;;;;7.50;5.90;;;;;;;22.48;65.14;99247.56;79899;1292;3013657;-68
2023/05/28 08:57:54;;;;;;;6.80;5.70;;;;;;;22.50;64.50;99244.38;78536;1295;3052108;-68
2023/05/28 09:00:21;;;;;;;8.10;5.10;;;;;;;22.49;64.33;99241.82;79510;1298;3020885;-69
2023/05/28 09:03:09;;;;;;;9.30;5.30;;;;;;;22.63;64.17;99238.38;78426;1298;3057936;-68
2023/05/28 09:05:38;;;;;;;6.90;5.40;;;;;;;22.73;63.62;99234.77;79672;1291;3013785;-71
2023/05/28 09:08:09;;;;;;;9.10;5.20;;;;;;;22.88;63.22;99232.69;79678;1298;3013118;-71
2023/05/28 09:10:40;;;;;;;8.30;5.50;;;;;;;23.17;62.70;99225.56;78494;1295;3054143;-63
2023/05/28 09:13:06;;;;;;;9.40;5.50;;;;;;;23.33;61.72;99222.31;79850;1298;3014434;-68
2023/05/28 09:15:35;;;;;;;6.20;4.90;;;;;;;23.30;61.76;99220.45;79889;1292;3012735;-66
2023/05/28 09:18:04;;;;;;;6.10;4.90;;;;;;;23.14;61.65;99219.84;78520;1293;3056153;-66
2023/05/28 09:20:31;;;;;;;11.70;4.80;;;;;;;23.22;61.71;99221.80;79493;1292;3013678;-67
2023/05/28 09:23:00;;;;;;;9.00;4.90;;;;;;;23.16;61.81;99223.55;79621;1291;3011671;-63
2023/05/28 09:25:51;;;;;;;6.40;5.30;;;;;;;22.94;62.03;99230.40;78289;1297;3053564;-70
2023/05/28 09:28:26;;;;;;;8.10;5.30;;;;;;;22.96;62.62;99233.66;80906;1292;3011476;-69
2023/05/28 09:31:02;;;;;;;6.80;5.40;;;;;;;23.07;62.23;99226.67;78542;1296;3070055;-66
2023/05/28 09:33:30;;;;;;;9.20;5.80;;;;;;;23.11;61.92;99222.18;78397;1298;3051886;-72
2023/05/28 09:35:59;;;;;;;7.10;4.80;;;;;;;23.01;62.45;99223.48;79678;1292;3018390;-68
2023/05/28 09:38:26;;;;;;;7.60;4.80;;;;;;;22.74;62.78;99228.70;79730;1292;3012956;-67
2023/05/28 09:40:57;;;;;;;6.00;5.00;;;;;;;22.70;62.84;99225.23;78577;1296;3050774;-70
2023/05/28 09:43:28;;;;;;;5.50;4.50;;;;;;;22.64;62.05;99230.48;79758;1292;3012039;-68
2023/05/28 09:46:09;;;;;;;7.10;4.90;;;;;;;22.67;61.50;99223.64;78767;1295;3052302;-69
2023/05/28 09:48:37;;;;;;;6.30;4.30;;;;;;;22.89;60.75;99215.53;78466;1295;3070589;-66
2023/05/28 09:51:04;;;;;;;5.70;4.30;;;;;;;23.04;59.83;99213.64;79709;1292;3012897;-68
2023/05/28 09:53:33;;;;;;;6.10;4.20;;;;;;;23.30;59.61;99214.96;79869;1295;3011871;-69
2023/05/28 09:56:02;;;;;;;6.70;3.90;;;;;;;23.61;58.88;99215.89;78550;1294;3053434;-68
2023/05/28 09:58:36;;;;;;;5.60;3.90;;;;;;;23.86;58.07;99211.38;79827;1295;3011485;-65
2023/05/28 10:01:07;;;;;;;6.30;4.00;;;;;;;23.94;57.19;99205.95;78505;1295;3052448;-70
2023/05/28 10:03:38;;;;;;;7.90;4.20;;;;;;;24.19;56.77;99200.02;79780;1295;3013058;-69
2023/05/28 10:06:14;;;;;;;4.60;3.90;;;;;;;24.42;56.06;99200.41;78504;1295;3069142;-68
2023/05/28 10:08:43;;;;;;;10.30;5.30;;;;;;;24.47;56.10;99200.24;78615;1295;3052573;-67
2023/05/28 10:11:12;;;;;;;5.80;3.90;;;;;;;24.37;56.73;99198.89;79752;1293;3013764;-66
2023/05/28 10:13:41;;;;;;;6.30;4.40;;;;;;;24.61;56.53;99194.04;78560;1295;3051738;-63
2023/05/28 10:16:08;;;;;;;5.50;4.00;;;;;;;24.68;56.78;99194.29;79755;1293;3012958;-67
2023/05/28 10:18:37;;;;;;;5.40;4.40;;;;;;;24.79;56.78;99190.52;79760;1295;3012005;-66
2023/05/28 10:21:05;;;;;;;6.70;3.90;;;;;;;24.87;55.87;99181.52;78712;1292;3069910;-66
2023/05/28 10:23:32;;;;;;;7.70;3.80;;;;;;;25.09;55.45;99183.96;79624;1292;3013256;-68
2023/05/28 10:25:59;;;;;;;6.00;4.30;;;;;;;25.01;56.00;99178.71;79615;1298;3013772;-65
2023/05/28 10:28:28;;;;;;;6.70;4.40;;;;;;;25.02;55.68;99184.61;78462;1296;3029275;-64
2023/05/28 10:31:14;;;;;;;5.60;4.20;;;;;;;25.23;54.73;99187.30;79809;1295;3013685;-69
2023/05/28 10:33:45;;;;;;;6.60;4.70;;;;;;;25.25;53.87;99186.27;78043;1298;3053308;-68
2023/05/28 10:36:13;;;;;;;10.20;4.90;;;;;;;25.12;53.98;99184.64;79725;1295;3015512;-66
2023/05/28 10:38:43;;;;;;;7.50;4.40;;;;;;;25.07;54.68;99184.55;79510;1292;3012173;-66
2023/05/28 10:41:17;;;;;;;6.30;4.50;;;;;;;25.07;54.76;99187.25;78586;1292;3057155;-67
2023/05/28 10:43:45;;;;;;;6.10;3.90;;;;;;;25.06;55.02;99190.05;79793;1293;3012409;-67
2023/05/28 10:46:19;;;;;;;7.80;5.30;;;;;;;25.06;55.31;99188.23;78521;1292;3053766;-70
2023/05/28 10:49:10;;;;;;;8.80;5.60;;;;;;;25.00;55.48;99182.52;79756;1292;3013401;-66
2023/05/28 10:51:57;;;;;;;6.50;5.70;;;;;;;24.97;55.61;99172.73;78506;1295;3052881;-63
2023/05/28 10:54:37;;;;;;;7.40;5.70;;;;;;;24.98;55.71;99168.70;78497;1292;3052575;-68
2023/05/28 10:57:08;;;;;;;8.00;6.10;;;;;;;25.10;55.58;99172.17;78460;1295;3070597;-70
2023/05/28 10:59:43;;;;;;;6.80;5.10;;;;;;;25.28;54.60;99169.91;79726;1292;3012271;-67
2023/05/28 11:02:25;;;;;;;12.70;5.30;;;;;;;25.53;53.31;99163.65;78500;1295;3056110;-69
2023/05/28 11:04:59;;;;;;;8.00;4.20;;;;;;;25.53;51.87;99158.10;78557;1295;3049890;-65
2023/05/28 11:07:38;;;;;;;5.40;4.40;;;;;;;25.43;51.93;99163.18;79499;1293;3011563;-68
2023/05/28 11:10:10;;;;;;;7.20;4.10;;;;;;;25.25;52.42;99177.59;78524;1297;3049803;-67
2023/05/28 12:27:03;;;;;;;13.20;3.00;;;;;;;18.37;82.12;99262.23;80207;1300;3013233;-73
2023/05/28 12:29:29;;;;;;;5.10;3.40;;;;;;;19.08;80.38;99258.46;79180;1301;3014341;-67
2023/05/28 12:31:58;;;;;;;6.60;4.20;;;;;;;19.72;76.31;99255.62;79070;1301;3013247;-70
2023/05/28 12:34:26;;;;;;;9.40;4.40;;;;;;;19.86;76.30;99253.04;77906;1303;3051990;-68
2023/05/28 12:36:52;;;;;;;9.10;4.80;;;;;;;19.90;75.92;99248.96;79005;1305;3013446;-68
2023/05/28 12:39:19;;;;;;;6.20;4.50;;;;;;;19.91;76.27;99248.73;77289;1304;3011939;-64
2023/05/28 12:41:48;;;;;;;7.60;4.40;;;;;;;19.90;77.07;99246.55;77949;1298;3028320;-69